sensor_id;sensor_type;location;lat;lon;timestamp;P1;durP1;ratioP1;P2;durP2;ratioP2
28174;SDS011;59417;44.788;10.334;2023-08-08T00:02:21;1.42;;;1.08;;
28174;SDS011;59417;44.788;10.334;2023-08-08T00:04:46;1.00;;;0.80;;
28174;SDS011;59417;44.788;10.334;2023-08-08T00:07:13;0.65;;;0.65;;
28174;SDS011;59417;44.788;10.334;2023-08-08T00:09:39;0.88;;;0.85;;
28174;SDS011;59417;44.788;10.334;2023-08-08T00:12:04;0.80;;;0.80;;
28174;SDS011;59417;44.788;10.334;2023-08-08T00:14:30;1.08;;;0.70;;
28174;SDS011;59417;44.788;10.334;2023-08-08T00:16:56;1.15;;;0.90;;
28174;SDS011;59417;44.788;10.334;2023-08-08T00:19:21;1.42;;;0.80;;
28174;SDS011;59417;44.788;10.334;2023-08-08T00:21:47;0.80;;;0.70;;
28174;SDS011;59417;44.788;10.334;2023-08-08T00:24:13;3.63;;;0.90;;
28174;SDS011;59417;44.788;10.334;2023-08-08T00:26:39;1.75;;;0.88;;
28174;SDS011;59417;44.788;10.334;2023-08-08T00:29:04;1.15;;;0.98;;
28174;SDS011;59417;44.788;10.334;2023-08-08T00:31:32;1.00;;;0.80;;
28174;SDS011;59417;44.788;10.334;2023-08-08T00:33:58;1.42;;;0.93;;
28174;SDS011;59417;44.788;10.334;2023-08-08T00:36:23;1.05;;;0.80;;
28174;SDS011;59417;44.788;10.334;2023-08-08T00:38:49;1.63;;;0.90;;
28174;SDS011;59417;44.788;10.334;2023-08-08T00:41:15;1.05;;;0.70;;
28174;SDS011;59417;44.788;10.334;2023-08-08T00:43:41;3.35;;;0.90;;
28174;SDS011;59417;44.788;10.334;2023-08-08T00:46:09;1.58;;;0.75;;
28174;SDS011;59417;44.788;10.334;2023-08-08T00:48:35;0.88;;;0.73;;
28174;SDS011;59417;44.788;10.334;2023-08-08T00:51:01;0.80;;;0.80;;
28174;SDS011;59417;44.788;10.334;2023-08-08T00:53:27;1.55;;;1.00;;
28174;SDS011;59417;44.788;10.334;2023-08-08T00:55:58;4.22;;;0.75;;
28174;SDS011;59417;44.788;10.334;2023-08-08T00:58:25;1.05;;;0.77;;
28174;SDS011;59417;44.788;10.334;2023-08-08T01:00:51;3.90;;;0.80;;
28174;SDS011;59417;44.788;10.334;2023-08-08T01:03:20;2.22;;;0.82;;
28174;SDS011;59417;44.788;10.334;2023-08-08T01:06:29;1.98;;;0.88;;
28174;SDS011;59417;44.788;10.334;2023-08-08T01:08:57;3.22;;;0.95;;
28174;SDS011;59417;44.788;10.334;2023-08-08T01:11:26;2.70;;;0.90;;
28174;SDS011;59417;44.788;10.334;2023-08-08T01:13:54;1.80;;;1.05;;
28174;SDS011;59417;44.788;10.334;2023-08-08T01:16:21;2.05;;;0.82;;
28174;SDS011;59417;44.788;10.334;2023-08-08T01:18:47;1.40;;;0.80;;
28174;SDS011;59417;44.788;10.334;2023-08-08T01:21:15;0.95;;;0.75;;
28174;SDS011;59417;44.788;10.334;2023-08-08T01:23:46;1.90;;;1.00;;
28174;SDS011;59417;44.788;10.334;2023-08-08T01:26:19;2.92;;;1.08;;
28174;SDS011;59417;44.788;10.334;2023-08-08T01:28:46;0.75;;;0.75;;
28174;SDS011;59417;44.788;10.334;2023-08-08T01:31:12;1.50;;;0.93;;
28174;SDS011;59417;44.788;10.334;2023-08-08T01:33:39;2.97;;;1.00;;
28174;SDS011;59417;44.788;10.334;2023-08-08T01:36:07;1.00;;;0.75;;
28174;SDS011;59417;44.788;10.334;2023-08-08T01:38:43;0.82;;;0.80;;
28174;SDS011;59417;44.788;10.334;2023-08-08T01:41:13;1.15;;;0.68;;
28174;SDS011;59417;44.788;10.334;2023-08-08T01:43:39;0.93;;;0.80;;
28174;SDS011;59417;44.788;10.334;2023-08-08T01:46:06;1.05;;;0.82;;
28174;SDS011;59417;44.788;10.334;2023-08-08T01:48:33;1.17;;;0.80;;
28174;SDS011;59417;44.788;10.334;2023-08-08T01:50:58;0.82;;;0.60;;
28174;SDS011;59417;44.788;10.334;2023-08-08T01:53:24;1.00;;;0.82;;
28174;SDS011;59417;44.788;10.334;2023-08-08T01:55:50;1.02;;;0.82;;
28174;SDS011;59417;44.788;10.334;2023-08-08T01:58:17;2.53;;;0.70;;
28174;SDS011;59417;44.788;10.334;2023-08-08T02:00:43;1.58;;;0.90;;
28174;SDS011;59417;44.788;10.334;2023-08-08T02:03:10;1.10;;;1.00;;
28174;SDS011;59417;44.788;10.334;2023-08-08T02:05:36;0.60;;;0.60;;
28174;SDS011;59417;44.788;10.334;2023-08-08T02:08:02;0.80;;;0.80;;
28174;SDS011;59417;44.788;10.334;2023-08-08T02:10:29;1.73;;;0.80;;
28174;SDS011;59417;44.788;10.334;2023-08-08T02:12:55;0.75;;;0.60;;
28174;SDS011;59417;44.788;10.334;2023-08-08T02:15:20;2.17;;;0.65;;
28174;SDS011;59417;44.788;10.334;2023-08-08T02:17:46;1.33;;;1.00;;
28174;SDS011;59417;44.788;10.334;2023-08-08T02:20:12;2.42;;;0.80;;
28174;SDS011;59417;44.788;10.334;2023-08-08T02:22:38;2.08;;;0.98;;
28174;SDS011;59417;44.788;10.334;2023-08-08T02:25:04;0.73;;;0.73;;
28174;SDS011;59417;44.788;10.334;2023-08-08T02:27:32;2.40;;;1.00;;
28174;SDS011;59417;44.788;10.334;2023-08-08T02:29:58;0.73;;;0.73;;
28174;SDS011;59417;44.788;10.334;2023-08-08T02:32:24;4.57;;;0.90;;
28174;SDS011;59417;44.788;10.334;2023-08-08T02:34:49;2.40;;;0.93;;
28174;SDS011;59417;44.788;10.334;2023-08-08T02:37:15;1.58;;;1.02;;
28174;SDS011;59417;44.788;10.334;2023-08-08T02:39:42;1.35;;;0.90;;
28174;SDS011;59417;44.788;10.334;2023-08-08T02:42:09;1.50;;;0.90;;
28174;SDS011;59417;44.788;10.334;2023-08-08T02:44:36;1.20;;;0.80;;
28174;SDS011;59417;44.788;10.334;2023-08-08T02:47:01;1.00;;;0.68;;
28174;SDS011;59417;44.788;10.334;2023-08-08T02:49:28;1.55;;;0.75;;
28174;SDS011;59417;44.788;10.334;2023-08-08T02:51:54;2.00;;;0.90;;
28174;SDS011;59417;44.788;10.334;2023-08-08T02:54:20;0.90;;;0.70;;
28174;SDS011;59417;44.788;10.334;2023-08-08T02:56:46;1.10;;;0.77;;
28174;SDS011;59417;44.788;10.334;2023-08-08T02:59:12;1.30;;;0.82;;
28174;SDS011;59417;44.788;10.334;2023-08-08T03:01:38;2.15;;;0.90;;
28174;SDS011;59417;44.788;10.334;2023-08-08T03:04:11;2.22;;;1.10;;
28174;SDS011;59417;44.788;10.334;2023-08-08T03:06:36;1.70;;;0.80;;
28174;SDS011;59417;44.788;10.334;2023-08-08T03:09:03;1.50;;;0.98;;
28174;SDS011;59417;44.788;10.334;2023-08-08T03:11:29;1.77;;;0.80;;
28174;SDS011;59417;44.788;10.334;2023-08-08T03:13:54;1.15;;;0.80;;
28174;SDS011;59417;44.788;10.334;2023-08-08T03:16:21;1.05;;;0.80;;
28174;SDS011;59417;44.788;10.334;2023-08-08T03:18:46;1.25;;;0.93;;
28174;SDS011;59417;44.788;10.334;2023-08-08T03:21:13;0.73;;;0.60;;
28174;SDS011;59417;44.788;10.334;2023-08-08T03:23:39;2.17;;;1.00;;
28174;SDS011;59417;44.788;10.334;2023-08-08T03:26:04;1.80;;;0.82;;
28174;SDS011;59417;44.788;10.334;2023-08-08T03:28:30;1.02;;;0.77;;
28174;SDS011;59417;44.788;10.334;2023-08-08T03:30:56;1.10;;;0.75;;
28174;SDS011;59417;44.788;10.334;2023-08-08T03:33:22;1.40;;;1.02;;
28174;SDS011;59417;44.788;10.334;2023-08-08T03:35:48;1.75;;;1.00;;
28174;SDS011;59417;44.788;10.334;2023-08-08T03:38:14;1.55;;;0.88;;
28174;SDS011;59417;44.788;10.334;2023-08-08T03:40:40;1.50;;;0.90;;
28174;SDS011;59417;44.788;10.334;2023-08-08T03:43:07;1.55;;;0.90;;
28174;SDS011;59417;44.788;10.334;2023-08-08T03:45:32;1.27;;;0.98;;
28174;SDS011;59417;44.788;10.334;2023-08-08T03:47:58;0.93;;;0.77;;
28174;SDS011;59417;44.788;10.334;2023-08-08T03:50:23;1.52;;;0.95;;
28174;SDS011;59417;44.788;10.334;2023-08-08T03:52:49;1.98;;;0.80;;
28174;SDS011;59417;44.788;10.334;2023-08-08T03:55:14;1.98;;;0.82;;
28174;SDS011;59417;44.788;10.334;2023-08-08T03:57:40;1.60;;;0.85;;
28174;SDS011;59417;44.788;10.334;2023-08-08T04:00:07;1.83;;;1.10;;
28174;SDS011;59417;44.788;10.334;2023-08-08T04:02:38;0.85;;;0.70;;
28174;SDS011;59417;44.788;10.334;2023-08-08T04:05:04;1.38;;;0.90;;
28174;SDS011;59417;44.788;10.334;2023-08-08T04:07:30;1.30;;;1.05;;
28174;SDS011;59417;44.788;10.334;2023-08-08T04:09:55;0.93;;;0.70;;
28174;SDS011;59417;44.788;10.334;2023-08-08T04:12:21;3.58;;;0.85;;
28174;SDS011;59417;44.788;10.334;2023-08-08T04:14:46;1.25;;;0.88;;
28174;SDS011;59417;44.788;10.334;2023-08-08T04:17:12;1.67;;;0.95;;
28174;SDS011;59417;44.788;10.334;2023-08-08T04:19:38;0.77;;;0.68;;
28174;SDS011;59417;44.788;10.334;2023-08-08T04:22:03;2.30;;;1.08;;
28174;SDS011;59417;44.788;10.334;2023-08-08T04:24:29;1.75;;;1.00;;
28174;SDS011;59417;44.788;10.334;2023-08-08T04:26:55;0.88;;;0.80;;
28174;SDS011;59417;44.788;10.334;2023-08-08T04:29:20;1.27;;;0.93;;
28174;SDS011;59417;44.788;10.334;2023-08-08T04:31:46;1.88;;;1.10;;
28174;SDS011;59417;44.788;10.334;2023-08-08T04:34:12;1.85;;;1.05;;
28174;SDS011;59417;44.788;10.334;2023-08-08T04:36:37;1.33;;;1.02;;
28174;SDS011;59417;44.788;10.334;2023-08-08T04:39:03;1.63;;;1.00;;
28174;SDS011;59417;44.788;10.334;2023-08-08T04:41:28;2.03;;;1.13;;
28174;SDS011;59417;44.788;10.334;2023-08-08T04:43:54;1.40;;;1.02;;
28174;SDS011;59417;44.788;10.334;2023-08-08T04:46:20;1.90;;;0.93;;
28174;SDS011;59417;44.788;10.334;2023-08-08T04:48:45;2.40;;;1.13;;
28174;SDS011;59417;44.788;10.334;2023-08-08T04:51:11;1.77;;;1.08;;
28174;SDS011;59417;44.788;10.334;2023-08-08T04:53:37;1.67;;;1.20;;
28174;SDS011;59417;44.788;10.334;2023-08-08T04:56:02;2.80;;;1.30;;
28174;SDS011;59417;44.788;10.334;2023-08-08T04:58:28;2.20;;;1.20;;
28174;SDS011;59417;44.788;10.334;2023-08-08T05:00:54;4.00;;;1.35;;
28174;SDS011;59417;44.788;10.334;2023-08-08T05:03:20;1.70;;;1.25;;
28174;SDS011;59417;44.788;10.334;2023-08-08T05:05:45;2.45;;;1.30;;
28174;SDS011;59417;44.788;10.334;2023-08-08T05:08:11;2.58;;;1.13;;
28174;SDS011;59417;44.788;10.334;2023-08-08T05:10:38;4.65;;;1.40;;
28174;SDS011;59417;44.788;10.334;2023-08-08T05:13:04;2.35;;;1.50;;
28174;SDS011;59417;44.788;10.334;2023-08-08T05:15:29;1.83;;;0.95;;
28174;SDS011;59417;44.788;10.334;2023-08-08T05:17:55;2.97;;;1.50;;
28174;SDS011;59417;44.788;10.334;2023-08-08T05:20:21;2.55;;;1.23;;
28174;SDS011;59417;44.788;10.334;2023-08-08T05:22:47;1.10;;;1.00;;
28174;SDS011;59417;44.788;10.334;2023-08-08T05:25:13;3.15;;;1.10;;
28174;SDS011;59417;44.788;10.334;2023-08-08T05:27:39;3.63;;;1.42;;
28174;SDS011;59417;44.788;10.334;2023-08-08T05:30:05;1.55;;;1.00;;
28174;SDS011;59417;44.788;10.334;2023-08-08T05:32:31;4.57;;;1.40;;
28174;SDS011;59417;44.788;10.334;2023-08-08T05:34:56;1.67;;;1.00;;
28174;SDS011;59417;44.788;10.334;2023-08-08T05:37:23;1.92;;;1.10;;
28174;SDS011;59417;44.788;10.334;2023-08-08T05:39:49;1.58;;;1.20;;
28174;SDS011;59417;44.788;10.334;2023-08-08T05:42:15;4.97;;;1.30;;
28174;SDS011;59417;44.788;10.334;2023-08-08T05:44:41;2.65;;;1.20;;
28174;SDS011;59417;44.788;10.334;2023-08-08T05:47:09;3.15;;;1.00;;
28174;SDS011;59417;44.788;10.334;2023-08-08T05:49:35;1.02;;;0.93;;
28174;SDS011;59417;44.788;10.334;2023-08-08T05:52:01;1.92;;;1.20;;
28174;SDS011;59417;44.788;10.334;2023-08-08T05:54:27;1.95;;;1.20;;
28174;SDS011;59417;44.788;10.334;2023-08-08T05:56:53;2.53;;;1.13;;
28174;SDS011;59417;44.788;10.334;2023-08-08T05:59:19;3.55;;;0.80;;
28174;SDS011;59417;44.788;10.334;2023-08-08T06:01:45;1.75;;;1.20;;
28174;SDS011;59417;44.788;10.334;2023-08-08T06:04:11;2.17;;;1.10;;
28174;SDS011;59417;44.788;10.334;2023-08-08T06:06:37;1.52;;;1.17;;
28174;SDS011;59417;44.788;10.334;2023-08-08T06:09:03;1.88;;;1.00;;
28174;SDS011;59417;44.788;10.334;2023-08-08T06:11:29;2.20;;;1.10;;
28174;SDS011;59417;44.788;10.334;2023-08-08T06:13:55;3.55;;;1.02;;
28174;SDS011;59417;44.788;10.334;2023-08-08T06:16:21;2.08;;;1.00;;
28174;SDS011;59417;44.788;10.334;2023-08-08T06:18:47;1.40;;;0.98;;
28174;SDS011;59417;44.788;10.334;2023-08-08T06:21:13;2.75;;;1.10;;
28174;SDS011;59417;44.788;10.334;2023-08-08T06:23:39;3.20;;;1.38;;
28174;SDS011;59417;44.788;10.334;2023-08-08T06:26:04;2.47;;;1.20;;
28174;SDS011;59417;44.788;10.334;2023-08-08T06:28:31;1.60;;;1.00;;
28174;SDS011;59417;44.788;10.334;2023-08-08T06:31:00;4.63;;;1.20;;
28174;SDS011;59417;44.788;10.334;2023-08-08T06:33:26;2.95;;;1.10;;
28174;SDS011;59417;44.788;10.334;2023-08-08T06:35:52;2.92;;;1.15;;
28174;SDS011;59417;44.788;10.334;2023-08-08T06:38:17;1.58;;;1.00;;
28174;SDS011;59417;44.788;10.334;2023-08-08T06:40:43;1.83;;;1.20;;
28174;SDS011;59417;44.788;10.334;2023-08-08T06:43:10;2.97;;;1.50;;
28174;SDS011;59417;44.788;10.334;2023-08-08T06:45:35;1.67;;;1.45;;
28174;SDS011;59417;44.788;10.334;2023-08-08T06:48:01;3.90;;;1.80;;
28174;SDS011;59417;44.788;10.334;2023-08-08T06:50:28;2.08;;;1.52;;
28174;SDS011;59417;44.788;10.334;2023-08-08T06:52:54;2.28;;;1.63;;
28174;SDS011;59417;44.788;10.334;2023-08-08T06:55:19;1.50;;;1.40;;
28174;SDS011;59417;44.788;10.334;2023-08-08T06:57:45;3.10;;;2.17;;
28174;SDS011;59417;44.788;10.334;2023-08-08T07:00:11;3.72;;;2.65;;
28174;SDS011;59417;44.788;10.334;2023-08-08T07:02:38;3.60;;;2.45;;
28174;SDS011;59417;44.788;10.334;2023-08-08T07:05:04;6.28;;;2.53;;
28174;SDS011;59417;44.788;10.334;2023-08-08T07:07:31;3.15;;;2.20;;
28174;SDS011;59417;44.788;10.334;2023-08-08T07:09:58;7.00;;;2.70;;
28174;SDS011;59417;44.788;10.334;2023-08-08T07:12:24;4.88;;;2.72;;
28174;SDS011;59417;44.788;10.334;2023-08-08T07:14:50;4.18;;;2.70;;
28174;SDS011;59417;44.788;10.334;2023-08-08T07:17:15;6.20;;;3.35;;
28174;SDS011;59417;44.788;10.334;2023-08-08T07:19:41;7.68;;;2.83;;
28174;SDS011;59417;44.788;10.334;2023-08-08T07:22:07;7.20;;;2.90;;
28174;SDS011;59417;44.788;10.334;2023-08-08T07:24:33;5.32;;;2.53;;
28174;SDS011;59417;44.788;10.334;2023-08-08T07:26:59;4.82;;;2.80;;
28174;SDS011;59417;44.788;10.334;2023-08-08T07:29:25;5.85;;;2.90;;
28174;SDS011;59417;44.788;10.334;2023-08-08T07:31:53;5.85;;;3.63;;
28174;SDS011;59417;44.788;10.334;2023-08-08T07:34:19;7.13;;;3.50;;
28174;SDS011;59417;44.788;10.334;2023-08-08T07:36:46;6.78;;;3.58;;
28174;SDS011;59417;44.788;10.334;2023-08-08T07:39:12;7.47;;;4.03;;
28174;SDS011;59417;44.788;10.334;2023-08-08T07:41:37;6.07;;;4.35;;
28174;SDS011;59417;44.788;10.334;2023-08-08T07:44:04;10.60;;;5.35;;
28174;SDS011;59417;44.788;10.334;2023-08-08T07:46:30;8.90;;;5.22;;
28174;SDS011;59417;44.788;10.334;2023-08-08T07:48:57;9.63;;;4.85;;
28174;SDS011;59417;44.788;10.334;2023-08-08T07:51:27;7.10;;;4.88;;
28174;SDS011;59417;44.788;10.334;2023-08-08T07:53:53;10.20;;;6.05;;
28174;SDS011;59417;44.788;10.334;2023-08-08T07:56:18;10.27;;;5.97;;
28174;SDS011;59417;44.788;10.334;2023-08-08T07:58:44;7.50;;;5.90;;
28174;SDS011;59417;44.788;10.334;2023-08-08T08:01:10;6.75;;;5.57;;
28174;SDS011;59417;44.788;10.334;2023-08-08T08:03:37;9.65;;;6.00;;
28174;SDS011;59417;44.788;10.334;2023-08-08T08:06:02;11.98;;;6.85;;
28174;SDS011;59417;44.788;10.334;2023-08-08T08:08:28;10.00;;;6.47;;
28174;SDS011;59417;44.788;10.334;2023-08-08T08:10:54;13.57;;;8.30;;
28174;SDS011;59417;44.788;10.334;2023-08-08T08:13:19;16.77;;;8.02;;
28174;SDS011;59417;44.788;10.334;2023-08-08T08:15:45;13.07;;;7.78;;
28174;SDS011;59417;44.788;10.334;2023-08-08T08:18:11;11.80;;;8.50;;
28174;SDS011;59417;44.788;10.334;2023-08-08T08:20:37;12.00;;;7.63;;
28174;SDS011;59417;44.788;10.334;2023-08-08T08:23:03;11.80;;;8.18;;
28174;SDS011;59417;44.788;10.334;2023-08-08T08:25:29;12.02;;;8.02;;
28174;SDS011;59417;44.788;10.334;2023-08-08T08:27:55;13.85;;;8.98;;
28174;SDS011;59417;44.788;10.334;2023-08-08T08:30:21;10.18;;;7.70;;
28174;SDS011;59417;44.788;10.334;2023-08-08T08:32:49;12.10;;;8.60;;
28174;SDS011;59417;44.788;10.334;2023-08-08T08:35:15;13.73;;;9.10;;
28174;SDS011;59417;44.788;10.334;2023-08-08T08:37:41;12.70;;;9.65;;
28174;SDS011;59417;44.788;10.334;2023-08-08T08:40:07;12.05;;;9.23;;
28174;SDS011;59417;44.788;10.334;2023-08-08T08:42:34;12.93;;;9.55;;
28174;SDS011;59417;44.788;10.334;2023-08-08T08:45:01;13.75;;;10.82;;
28174;SDS011;59417;44.788;10.334;2023-08-08T08:47:29;16.10;;;11.73;;
28174;SDS011;59417;44.788;10.334;2023-08-08T08:49:56;15.30;;;10.80;;
28174;SDS011;59417;44.788;10.334;2023-08-08T08:52:23;16.17;;;11.32;;
28174;SDS011;59417;44.788;10.334;2023-08-08T08:54:52;20.63;;;12.27;;
28174;SDS011;59417;44.788;10.334;2023-08-08T08:57:20;15.25;;;10.82;;
28174;SDS011;59417;44.788;10.334;2023-08-08T09:02:14;15.05;;;11.07;;
28174;SDS011;59417;44.788;10.334;2023-08-08T09:04:40;18.55;;;12.25;;
28174;SDS011;59417;44.788;10.334;2023-08-08T09:07:07;19.40;;;12.57;;
28174;SDS011;59417;44.788;10.334;2023-08-08T09:09:34;13.55;;;9.75;;
28174;SDS011;59417;44.788;10.334;2023-08-08T09:12:02;19.13;;;12.05;;
28174;SDS011;59417;44.788;10.334;2023-08-08T09:14:29;17.73;;;12.38;;
28174;SDS011;59417;44.788;10.334;2023-08-08T09:16:54;18.00;;;12.65;;
28174;SDS011;59417;44.788;10.334;2023-08-08T09:19:24;22.73;;;13.68;;
28174;SDS011;59417;44.788;10.334;2023-08-08T09:21:51;18.38;;;12.85;;
28174;SDS011;59417;44.788;10.334;2023-08-08T09:24:17;17.83;;;13.35;;
28174;SDS011;59417;44.788;10.334;2023-08-08T09:26:44;21.75;;;12.98;;
28174;SDS011;59417;44.788;10.334;2023-08-08T09:29:13;16.88;;;10.82;;
28174;SDS011;59417;44.788;10.334;2023-08-08T09:31:56;20.42;;;11.50;;
28174;SDS011;59417;44.788;10.334;2023-08-08T09:34:25;17.42;;;11.82;;
28174;SDS011;59417;44.788;10.334;2023-08-08T09:36:53;20.83;;;13.35;;
28174;SDS011;59417;44.788;10.334;2023-08-08T09:39:24;18.77;;;12.27;;
28174;SDS011;59417;44.788;10.334;2023-08-08T09:41:56;19.67;;;12.38;;
28174;SDS011;59417;44.788;10.334;2023-08-08T09:44:32;19.67;;;13.98;;
28174;SDS011;59417;44.788;10.334;2023-08-08T09:47:16;21.73;;;13.70;;
28174;SDS011;59417;44.788;10.334;2023-08-08T09:49:51;22.75;;;14.93;;
28174;SDS011;59417;44.788;10.334;2023-08-08T09:52:46;20.23;;;15.40;;
28174;SDS011;59417;44.788;10.334;2023-08-08T09:55:18;19.98;;;14.43;;
28174;SDS011;59417;44.788;10.334;2023-08-08T09:57:45;27.00;;;15.98;;
28174;SDS011;59417;44.788;10.334;2023-08-08T10:00:12;23.52;;;14.88;;
28174;SDS011;59417;44.788;10.334;2023-08-08T10:02:44;22.13;;;14.47;;
28174;SDS011;59417;44.788;10.334;2023-08-08T10:05:11;18.25;;;14.02;;
28174;SDS011;59417;44.788;10.334;2023-08-08T10:07:39;27.77;;;16.02;;
28174;SDS011;59417;44.788;10.334;2023-08-08T10:10:06;25.92;;;16.65;;
28174;SDS011;59417;44.788;10.334;2023-08-08T10:12:39;26.90;;;14.57;;
28174;SDS011;59417;44.788;10.334;2023-08-08T10:15:08;21.20;;;14.30;;
28174;SDS011;59417;44.788;10.334;2023-08-08T10:17:36;21.95;;;14.77;;
28174;SDS011;59417;44.788;10.334;2023-08-08T10:20:04;22.70;;;15.35;;
28174;SDS011;59417;44.788;10.334;2023-08-08T10:22:37;27.23;;;15.70;;
28174;SDS011;59417;44.788;10.334;2023-08-08T10:25:07;23.05;;;15.13;;
28174;SDS011;59417;44.788;10.334;2023-08-08T10:27:34;20.25;;;13.60;;
28174;SDS011;59417;44.788;10.334;2023-08-08T10:30:07;19.65;;;12.90;;
28174;SDS011;59417;44.788;10.334;2023-08-08T10:32:38;17.35;;;12.70;;
28174;SDS011;59417;44.788;10.334;2023-08-08T10:35:08;20.05;;;13.15;;
28174;SDS011;59417;44.788;10.334;2023-08-08T10:37:35;21.95;;;13.15;;
28174;SDS011;59417;44.788;10.334;2023-08-08T10:40:03;19.48;;;11.45;;
28174;SDS011;59417;44.788;10.334;2023-08-08T10:44:59;21.70;;;11.02;;
28174;SDS011;59417;44.788;10.334;2023-08-08T10:47:30;18.63;;;10.48;;
28174;SDS011;59417;44.788;10.334;2023-08-08T10:49:59;15.77;;;10.30;;
28174;SDS011;59417;44.788;10.334;2023-08-08T10:52:54;15.45;;;10.95;;
28174;SDS011;59417;44.788;10.334;2023-08-08T10:55:20;15.60;;;10.40;;
28174;SDS011;59417;44.788;10.334;2023-08-08T10:58:09;17.50;;;11.32;;
28174;SDS011;59417;44.788;10.334;2023-08-08T11:00:54;16.10;;;10.32;;
28174;SDS011;59417;44.788;10.334;2023-08-08T11:03:19;13.93;;;9.18;;
28174;SDS011;59417;44.788;10.334;2023-08-08T11:05:46;11.95;;;8.85;;
28174;SDS011;59417;44.788;10.334;2023-08-08T11:08:13;13.65;;;9.23;;
28174;SDS011;59417;44.788;10.334;2023-08-08T11:10:40;13.88;;;8.75;;
28174;SDS011;59417;44.788;10.334;2023-08-08T11:13:07;10.45;;;7.57;;
28174;SDS011;59417;44.788;10.334;2023-08-08T11:15:34;11.32;;;7.85;;
28174;SDS011;59417;44.788;10.334;2023-08-08T11:18:01;12.70;;;8.02;;
28174;SDS011;59417;44.788;10.334;2023-08-08T11:20:31;16.45;;;9.68;;
28174;SDS011;59417;44.788;10.334;2023-08-08T11:22:58;16.55;;;10.90;;
28174;SDS011;59417;44.788;10.334;2023-08-08T11:25:25;12.98;;;8.70;;
28174;SDS011;59417;44.788;10.334;2023-08-08T11:27:54;14.40;;;9.45;;
28174;SDS011;59417;44.788;10.334;2023-08-08T11:30:21;14.80;;;7.97;;
28174;SDS011;59417;44.788;10.334;2023-08-08T11:32:48;12.82;;;8.52;;
28174;SDS011;59417;44.788;10.334;2023-08-08T11:35:20;16.27;;;10.10;;
28174;SDS011;59417;44.788;10.334;2023-08-08T11:37:47;17.63;;;10.10;;
28174;SDS011;59417;44.788;10.334;2023-08-08T11:40:14;14.50;;;8.70;;
28174;SDS011;59417;44.788;10.334;2023-08-08T11:42:41;12.45;;;8.95;;
28174;SDS011;59417;44.788;10.334;2023-08-08T11:45:08;13.32;;;9.32;;
28174;SDS011;59417;44.788;10.334;2023-08-08T11:47:35;17.48;;;9.07;;
28174;SDS011;59417;44.788;10.334;2023-08-08T11:50:02;13.20;;;9.18;;
28174;SDS011;59417;44.788;10.334;2023-08-08T11:52:29;12.65;;;7.93;;
28174;SDS011;59417;44.788;10.334;2023-08-08T11:54:55;14.40;;;8.98;;
28174;SDS011;59417;44.788;10.334;2023-08-08T11:57:23;14.23;;;8.02;;
28174;SDS011;59417;44.788;10.334;2023-08-08T11:59:49;12.60;;;8.45;;
28174;SDS011;59417;44.788;10.334;2023-08-08T12:02:14;11.95;;;8.00;;
28174;SDS011;59417;44.788;10.334;2023-08-08T12:04:45;10.07;;;7.15;;
28174;SDS011;59417;44.788;10.334;2023-08-08T12:07:11;15.98;;;9.07;;
28174;SDS011;59417;44.788;10.334;2023-08-08T12:09:37;15.43;;;9.10;;
28174;SDS011;59417;44.788;10.334;2023-08-08T12:12:04;15.23;;;9.20;;
28174;SDS011;59417;44.788;10.334;2023-08-08T12:14:36;10.93;;;7.70;;
28174;SDS011;59417;44.788;10.334;2023-08-08T12:17:02;14.63;;;9.13;;
28174;SDS011;59417;44.788;10.334;2023-08-08T12:19:29;10.90;;;6.85;;
28174;SDS011;59417;44.788;10.334;2023-08-08T12:21:55;10.95;;;6.97;;
28174;SDS011;59417;44.788;10.334;2023-08-08T12:24:20;9.77;;;7.00;;
28174;SDS011;59417;44.788;10.334;2023-08-08T12:26:46;17.88;;;9.88;;
28174;SDS011;59417;44.788;10.334;2023-08-08T12:29:12;15.30;;;9.55;;
28174;SDS011;59417;44.788;10.334;2023-08-08T12:31:38;12.00;;;7.85;;
28174;SDS011;59417;44.788;10.334;2023-08-08T12:34:04;9.88;;;7.22;;
28174;SDS011;59417;44.788;10.334;2023-08-08T12:36:30;10.80;;;7.75;;
28174;SDS011;59417;44.788;10.334;2023-08-08T12:38:56;9.73;;;6.43;;
28174;SDS011;59417;44.788;10.334;2023-08-08T12:41:22;12.15;;;5.93;;
28174;SDS011;59417;44.788;10.334;2023-08-08T12:43:50;10.60;;;5.82;;
28174;SDS011;59417;44.788;10.334;2023-08-08T12:46:16;8.98;;;6.07;;
28174;SDS011;59417;44.788;10.334;2023-08-08T12:48:42;7.10;;;5.35;;
28174;SDS011;59417;44.788;10.334;2023-08-08T12:51:09;7.78;;;5.10;;
28174;SDS011;59417;44.788;10.334;2023-08-08T12:53:35;10.70;;;6.03;;
28174;SDS011;59417;44.788;10.334;2023-08-08T12:56:01;5.72;;;4.07;;
28174;SDS011;59417;44.788;10.334;2023-08-08T12:58:27;8.05;;;4.63;;
28174;SDS011;59417;44.788;10.334;2023-08-08T13:00:52;6.30;;;4.10;;
28174;SDS011;59417;44.788;10.334;2023-08-08T13:03:18;9.70;;;3.83;;
28174;SDS011;59417;44.788;10.334;2023-08-08T13:05:44;6.82;;;4.60;;
28174;SDS011;59417;44.788;10.334;2023-08-08T13:08:09;6.57;;;4.07;;
28174;SDS011;59417;44.788;10.334;2023-08-08T13:10:35;8.07;;;4.57;;
28174;SDS011;59417;44.788;10.334;2023-08-08T13:13:01;6.28;;;4.40;;
28174;SDS011;59417;44.788;10.334;2023-08-08T13:15:27;8.10;;;4.68;;
28174;SDS011;59417;44.788;10.334;2023-08-08T13:17:52;4.35;;;3.60;;
28174;SDS011;59417;44.788;10.334;2023-08-08T13:20:18;4.55;;;3.08;;
28174;SDS011;59417;44.788;10.334;2023-08-08T13:22:44;4.60;;;3.40;;
28174;SDS011;59417;44.788;10.334;2023-08-08T13:25:09;7.72;;;3.88;;
28174;SDS011;59417;44.788;10.334;2023-08-08T13:27:35;4.05;;;2.97;;
28174;SDS011;59417;44.788;10.334;2023-08-08T13:30:01;7.47;;;3.38;;
28174;SDS011;59417;44.788;10.334;2023-08-08T13:32:27;4.45;;;2.90;;
28174;SDS011;59417;44.788;10.334;2023-08-08T13:34:53;3.38;;;2.25;;
28174;SDS011;59417;44.788;10.334;2023-08-08T13:37:19;7.03;;;2.75;;
28174;SDS011;59417;44.788;10.334;2023-08-08T13:39:44;3.47;;;2.45;;
28174;SDS011;59417;44.788;10.334;2023-08-08T13:42:10;4.82;;;2.83;;
28174;SDS011;59417;44.788;10.334;2023-08-08T13:44:36;5.90;;;3.20;;
28174;SDS011;59417;44.788;10.334;2023-08-08T13:47:02;3.53;;;2.45;;
28174;SDS011;59417;44.788;10.334;2023-08-08T13:49:27;3.28;;;2.10;;
28174;SDS011;59417;44.788;10.334;2023-08-08T13:51:53;6.68;;;2.67;;
28174;SDS011;59417;44.788;10.334;2023-08-08T13:54:19;3.20;;;2.03;;
28174;SDS011;59417;44.788;10.334;2023-08-08T13:56:46;3.40;;;1.95;;
28174;SDS011;59417;44.788;10.334;2023-08-08T13:59:11;2.80;;;1.92;;
28174;SDS011;59417;44.788;10.334;2023-08-08T14:01:37;2.28;;;1.80;;
28174;SDS011;59417;44.788;10.334;2023-08-08T14:04:03;2.67;;;1.83;;
28174;SDS011;59417;44.788;10.334;2023-08-08T14:06:29;2.45;;;1.65;;
28174;SDS011;59417;44.788;10.334;2023-08-08T14:08:56;5.53;;;1.70;;
28174;SDS011;59417;44.788;10.334;2023-08-08T14:11:22;4.72;;;1.85;;
28174;SDS011;59417;44.788;10.334;2023-08-08T14:13:48;2.13;;;1.52;;
28174;SDS011;59417;44.788;10.334;2023-08-08T14:16:13;1.80;;;1.30;;
28174;SDS011;59417;44.788;10.334;2023-08-08T14:18:39;2.05;;;1.40;;
28174;SDS011;59417;44.788;10.334;2023-08-08T14:21:05;1.80;;;1.30;;
28174;SDS011;59417;44.788;10.334;2023-08-08T14:23:30;2.28;;;1.35;;
28174;SDS011;59417;44.788;10.334;2023-08-08T14:25:56;3.63;;;1.40;;
28174;SDS011;59417;44.788;10.334;2023-08-08T14:28:22;4.65;;;1.60;;
28174;SDS011;59417;44.788;10.334;2023-08-08T14:30:48;1.90;;;1.40;;
28174;SDS011;59417;44.788;10.334;2023-08-08T14:33:14;1.98;;;1.55;;